Paducah, Kentucky
Current Conditions -  °F | °C
As of 1:12 AM on Thursday 23 Oct 2014 (Local Time) from KPAH Reporting Station
Clear Clear  
Wind Chill: 39°   Ceiling: Unl
Heat Index: 39°   Visibility: 9mi
Dew Point: 38°   Wind: 0mph
Humidity: 96%   Direction: NA
Pressure: 30.22"   Gusts: NA
Location:  37.09°N, 88.59°W
Report Text: KPAH 230612Z AUTO 00000KT 9SM CLR 04/03 A3022 RMK AO2 T00390033
Loading
Personal Weather Stations






























Interactive Weather Map
Tropical Storm Tracking
New forecast layout! Learn more

10-Day Weather Forecast

Advertisements
Track Severe Weather on mobile